VEAT/IXA METAR and TAF weather

Enter ICAO airport designator
Station Type Date Time Source
VEAT METAR 2018/12/10 09:00 UTC NOAA

VEAT 100900Z 33003KT 6000 NSC 27/15 Q1012 NOSIG


Station Type Date Time Source
VEAT Decoded METAR 2018/12/10 09:00 UTC NOAA

Agartala, India (VEAT) 23-53N 091-15E 16M
Dec 10, 2018 - 04:00 AM EST / 2018.12.10 0900 UTC
Wind: from the NNW (330 degrees) at 3 MPH (3 KT):0
Visibility: 3 mile(s):0
Temperature: 80 F (27 C)
Dew Point: 59 F (15 C)
Relative Humidity: 47%
Pressure (altimeter): 29.88 in. Hg (1012 hPa)
ob: VEAT 100900Z 33003KT 6000 NSC 27/15 Q1012 NOSIG
cycle: 9

Station Type Date Time Source
VEAT TAF 2013/07/19 12:00 UTC NOAA

TAF VEAT 190900Z 1912/1921 16008KT 5000 HZ SCT018 FEW030CB BKN100
TEMPO 1912/1921 3000 -TSRA SCT015 FEW025CB OVC090


Example: see airport list